createdAt,value
2023-03-17T00:01:51.503Z,3.20
2023-03-17T00:04:19.595Z,3.00
2023-03-17T00:06:46.615Z,2.80
2023-03-17T00:09:18.066Z,3.13
2023-03-17T00:11:45.602Z,2.93
2023-03-17T00:14:12.377Z,3.13
2023-03-17T00:16:42.319Z,2.73
2023-03-17T00:19:32.333Z,3.00
2023-03-17T00:22:00.846Z,2.67
2023-03-17T00:24:28.442Z,2.70
2023-03-17T00:26:55.169Z,3.00
2023-03-17T00:29:21.898Z,2.80
2023-03-17T00:31:49.358Z,2.50
2023-03-17T00:34:18.514Z,2.67
2023-03-17T00:36:48.268Z,2.77
2023-03-17T00:41:42.373Z,2.90
2023-03-17T00:44:09.734Z,2.90
2023-03-17T00:46:38.056Z,2.33
2023-03-17T00:51:44.631Z,3.00
2023-03-17T00:54:12.059Z,2.77
2023-03-17T00:56:39.731Z,2.60
2023-03-17T00:59:21.586Z,3.07
2023-03-17T01:01:49.093Z,2.70
2023-03-17T01:04:16.019Z,2.60
2023-03-17T01:06:43.201Z,2.63
2023-03-17T01:09:16.349Z,2.40
2023-03-17T01:11:44.068Z,2.50
2023-03-17T01:14:11.758Z,2.53
2023-03-17T01:16:38.907Z,2.53
2023-03-17T01:19:06.359Z,2.77
2023-03-17T01:21:33.064Z,2.57
2023-03-17T01:24:00.445Z,2.53
2023-03-17T01:26:27.273Z,2.90
2023-03-17T01:28:53.988Z,2.60
2023-03-17T01:31:20.841Z,2.60
2023-03-17T01:33:47.623Z,2.30
2023-03-17T01:36:15.673Z,2.57
2023-03-17T01:38:42.393Z,2.70
2023-03-17T01:41:09.048Z,2.50
2023-03-17T01:43:36.560Z,2.87
2023-03-17T01:46:35.270Z,2.50
2023-03-17T01:49:31.155Z,2.80
2023-03-17T01:52:00.989Z,2.83
2023-03-17T01:54:34.751Z,2.80
2023-03-17T01:57:24.817Z,2.70
2023-03-17T01:59:54.573Z,2.50
2023-03-17T02:02:34.976Z,2.50
2023-03-17T02:05:03.715Z,2.57
2023-03-17T02:07:31.410Z,2.83
2023-03-17T02:09:58.878Z,2.30
2023-03-17T02:12:25.954Z,2.83
2023-03-17T02:14:53.086Z,2.60
2023-03-17T02:17:24.208Z,2.57
2023-03-17T02:19:51.579Z,2.37
2023-03-17T02:22:20.201Z,2.60
2023-03-17T02:24:58.809Z,2.73
2023-03-17T02:27:38.559Z,2.40
2023-03-17T02:30:08.264Z,2.57
2023-03-17T02:32:36.352Z,2.70
2023-03-17T02:35:03.550Z,2.50
2023-03-17T02:37:30.348Z,2.90
2023-03-17T02:39:57.210Z,2.80
2023-03-17T02:42:24.450Z,2.60
2023-03-17T02:44:51.051Z,2.90
2023-03-17T02:47:17.669Z,2.97
2023-03-17T02:49:45.457Z,2.80
2023-03-17T02:52:12.221Z,2.63
2023-03-17T02:54:39.032Z,2.90
2023-03-17T02:57:06.436Z,2.90
2023-03-17T02:59:33.170Z,2.60
2023-03-17T03:02:00.938Z,2.63
2023-03-17T03:04:27.731Z,2.77
2023-03-17T03:06:54.813Z,2.70
2023-03-17T03:09:21.598Z,2.63
2023-03-17T03:11:48.427Z,2.90
2023-03-17T03:14:15.108Z,2.27
2023-03-17T03:16:41.820Z,3.07
2023-03-17T03:19:08.939Z,2.83
2023-03-17T03:21:36.628Z,2.53
2023-03-17T03:24:04.185Z,2.80
2023-03-17T03:26:31.040Z,2.77
2023-03-17T03:28:58.425Z,2.90
2023-03-17T03:31:25.230Z,2.70
2023-03-17T03:33:51.973Z,3.07
2023-03-17T03:36:18.802Z,2.73
2023-03-17T03:38:45.779Z,2.87
2023-03-17T03:41:13.007Z,2.80
2023-03-17T03:43:39.808Z,2.60
2023-03-17T03:46:06.582Z,2.80
2023-03-17T03:48:33.631Z,2.60
2023-03-17T03:51:02.272Z,2.70
2023-03-17T03:53:29.391Z,2.90
2023-03-17T03:55:56.354Z,2.60
2023-03-17T03:58:23.101Z,2.80
2023-03-17T04:00:50.333Z,2.80
2023-03-17T04:03:17.024Z,2.80
2023-03-17T04:05:43.666Z,2.80
2023-03-17T04:08:11.307Z,2.90
2023-03-17T04:10:38.037Z,3.23
2023-03-17T04:13:04.701Z,2.80
2023-03-17T04:15:31.356Z,2.93
2023-03-17T04:17:57.984Z,2.97
2023-03-17T04:20:24.621Z,3.13
2023-03-17T04:22:51.742Z,3.00
2023-03-17T04:25:18.616Z,3.00
2023-03-17T04:27:45.268Z,3.27
2023-03-17T04:30:13.820Z,2.93
2023-03-17T04:32:40.955Z,2.87
2023-03-17T04:35:09.204Z,2.67
2023-03-17T04:37:36.080Z,3.30
2023-03-17T04:40:02.792Z,3.00
2023-03-17T04:42:29.414Z,2.87
2023-03-17T04:44:56.100Z,2.93
2023-03-17T04:47:22.719Z,2.67
2023-03-17T04:49:49.337Z,3.40
2023-03-17T04:52:16.006Z,3.10
2023-03-17T04:54:42.644Z,2.90
2023-03-17T04:57:10.106Z,2.80
2023-03-17T04:59:37.032Z,2.97
2023-03-17T05:02:03.767Z,2.90
2023-03-17T05:04:32.355Z,3.10
2023-03-17T05:06:59.772Z,2.87
2023-03-17T05:09:28.649Z,2.77
2023-03-17T05:11:55.956Z,3.10
2023-03-17T05:14:22.592Z,3.07
2023-03-17T05:16:49.835Z,2.93
2023-03-17T05:19:17.424Z,2.80
2023-03-17T05:21:44.152Z,3.00
2023-03-17T05:24:10.853Z,2.90
2023-03-17T05:26:38.687Z,3.20
2023-03-17T05:29:05.479Z,2.90
2023-03-17T05:31:32.235Z,2.90
2023-03-17T05:33:59.527Z,2.60
2023-03-17T05:36:26.230Z,2.50
2023-03-17T05:38:53.221Z,2.90
2023-03-17T05:41:20.398Z,2.93
2023-03-17T05:43:47.269Z,2.93
2023-03-17T05:46:14.555Z,3.00
2023-03-17T05:48:41.895Z,2.70
2023-03-17T05:51:08.567Z,3.10
2023-03-17T05:53:38.512Z,3.00
2023-03-17T05:56:06.784Z,2.63
2023-03-17T05:58:33.783Z,2.50
2023-03-17T06:01:00.587Z,2.60
2023-03-17T06:03:27.471Z,2.87
2023-03-17T06:05:54.259Z,3.03
2023-03-17T06:08:21.303Z,3.00
2023-03-17T06:10:48.061Z,2.57
2023-03-17T06:13:15.427Z,2.70
2023-03-17T06:15:43.066Z,3.00
2023-03-17T06:18:09.758Z,2.97
2023-03-17T06:20:36.726Z,2.90
2023-03-17T06:23:05.627Z,2.50
2023-03-17T06:25:34.482Z,2.67
2023-03-17T06:28:03.542Z,2.70
2023-03-17T06:30:33.977Z,3.13
2023-03-17T06:33:01.660Z,2.70
2023-03-17T06:35:29.392Z,2.80
2023-03-17T06:37:56.298Z,2.53
2023-03-17T06:40:22.971Z,2.77
2023-03-17T06:42:49.641Z,2.87
2023-03-17T06:45:17.317Z,2.80
2023-03-17T06:47:43.996Z,2.90
2023-03-17T06:50:12.177Z,3.20
2023-03-17T06:52:40.057Z,2.80
2023-03-17T06:55:07.283Z,2.90
2023-03-17T06:57:34.029Z,3.07
2023-03-17T07:00:00.727Z,3.07
2023-03-17T07:02:27.379Z,2.90
2023-03-17T07:04:54.121Z,3.50
2023-03-17T07:07:21.087Z,2.93
2023-03-17T07:09:47.991Z,3.00
2023-03-17T07:12:14.830Z,3.47
2023-03-17T07:14:41.859Z,3.67
2023-03-17T07:17:12.393Z,3.53
2023-03-17T07:19:39.885Z,2.93
2023-03-17T07:22:07.200Z,3.60
2023-03-17T07:24:33.860Z,3.80
2023-03-17T07:27:00.548Z,2.97
2023-03-17T07:29:28.465Z,3.67
2023-03-17T07:31:55.167Z,3.80
2023-03-17T07:34:22.184Z,3.40
2023-03-17T07:36:48.868Z,3.57
2023-03-17T07:39:15.591Z,3.07
2023-03-17T07:41:43.968Z,3.20
2023-03-17T07:44:11.811Z,3.20
2023-03-17T07:46:38.973Z,3.00
2023-03-17T07:49:06.147Z,3.37
2023-03-17T07:51:32.850Z,3.33
2023-03-17T07:54:03.913Z,3.43
2023-03-17T07:56:31.757Z,3.20
2023-03-17T07:58:59.202Z,3.67
2023-03-17T08:01:27.030Z,3.50
2023-03-17T08:03:54.877Z,3.43
2023-03-17T08:06:21.854Z,3.23
2023-03-17T08:08:48.692Z,3.63
2023-03-17T08:11:15.825Z,3.97
2023-03-17T08:13:42.559Z,3.50
2023-03-17T08:16:09.554Z,3.57
2023-03-17T08:18:36.847Z,3.63
2023-03-17T08:21:03.825Z,3.57
2023-03-17T08:23:31.068Z,3.73
2023-03-17T08:25:59.093Z,3.63
2023-03-17T08:28:25.914Z,3.47
2023-03-17T08:30:52.630Z,3.60
2023-03-17T08:33:19.360Z,4.10
2023-03-17T08:35:46.162Z,4.03
2023-03-17T08:38:13.092Z,3.90
2023-03-17T08:40:40.344Z,3.73
2023-03-17T08:43:07.660Z,4.00
2023-03-17T08:45:34.586Z,3.53
2023-03-17T08:48:01.238Z,3.87
2023-03-17T08:50:27.966Z,3.40
2023-03-17T08:52:55.055Z,3.60
2023-03-17T08:55:21.658Z,3.57
2023-03-17T08:57:48.660Z,3.83
2023-03-17T09:00:20.653Z,3.73
2023-03-17T09:02:48.088Z,3.80
2023-03-17T09:05:16.641Z,3.60
2023-03-17T09:07:43.686Z,3.60
2023-03-17T09:10:11.395Z,3.50
2023-03-17T09:12:38.206Z,3.20
2023-03-17T09:15:05.714Z,3.83
2023-03-17T09:17:32.311Z,3.20
2023-03-17T09:19:59.614Z,3.00
2023-03-17T09:22:26.243Z,2.90
2023-03-17T09:24:53.194Z,2.80
2023-03-17T09:27:19.834Z,2.77
2023-03-17T09:29:46.552Z,3.00
2023-03-17T09:32:13.220Z,3.00
2023-03-17T09:34:39.899Z,2.90
2023-03-17T09:37:06.751Z,2.80
2023-03-17T09:39:33.476Z,2.83
2023-03-17T09:42:18.569Z,2.80
2023-03-17T09:45:02.813Z,2.67
2023-03-17T09:48:00.392Z,2.53
2023-03-17T09:50:45.843Z,2.57
2023-03-17T09:53:46.189Z,2.67
2023-03-17T09:56:16.156Z,3.50
2023-03-17T09:58:51.145Z,3.20
2023-03-17T10:01:18.443Z,4.70
2023-03-17T10:03:46.054Z,4.27
2023-03-17T10:06:24.763Z,3.23
2023-03-17T10:09:08.256Z,3.23
2023-03-17T10:11:43.422Z,2.90
2023-03-17T10:14:27.200Z,2.87
2023-03-17T10:17:02.325Z,2.30
2023-03-17T10:19:55.240Z,2.30
2023-03-17T10:22:38.024Z,2.50
2023-03-17T10:25:13.505Z,2.60
2023-03-17T10:27:40.749Z,1.90
2023-03-17T10:30:18.781Z,2.13
2023-03-17T10:32:46.572Z,1.80
2023-03-17T10:35:15.013Z,2.10
2023-03-17T10:37:43.869Z,1.77
2023-03-17T10:40:24.486Z,2.10
2023-03-17T10:43:07.967Z,1.80
2023-03-17T10:45:43.280Z,1.70
2023-03-17T10:48:17.569Z,1.87
2023-03-17T10:50:48.603Z,1.80
2023-03-17T10:53:28.015Z,1.93
2023-03-17T10:55:59.588Z,1.70
2023-03-17T10:58:36.958Z,1.50
2023-03-17T11:01:07.915Z,1.50
2023-03-17T11:03:39.855Z,1.87
2023-03-17T11:06:12.315Z,1.60
2023-03-17T11:08:51.239Z,1.77
2023-03-17T11:11:34.546Z,2.10
2023-03-17T11:14:16.143Z,1.63
2023-03-17T11:16:59.892Z,1.70
2023-03-17T11:19:38.216Z,1.70
2023-03-17T11:22:41.338Z,1.57
2023-03-17T11:25:17.298Z,1.50
2023-03-17T11:27:47.593Z,1.43
2023-03-17T11:30:33.905Z,1.50
2023-03-17T11:33:27.985Z,1.47
2023-03-17T11:35:59.898Z,1.37
2023-03-17T11:38:31.690Z,1.40
2023-03-17T11:41:21.864Z,1.30
2023-03-17T11:44:08.094Z,1.40
2023-03-17T11:46:41.073Z,1.30
2023-03-17T11:49:18.938Z,1.60
2023-03-17T11:51:56.564Z,1.30
2023-03-17T11:54:44.543Z,1.73
2023-03-17T11:57:32.233Z,1.47
2023-03-17T12:00:03.962Z,1.40
2023-03-17T12:02:41.534Z,1.63
2023-03-17T12:05:16.746Z,1.40
2023-03-17T12:07:51.504Z,1.40
2023-03-17T12:10:25.531Z,1.40
2023-03-17T12:13:12.283Z,1.33
2023-03-17T12:15:48.897Z,1.53
2023-03-17T12:18:21.341Z,1.40
2023-03-17T12:21:05.825Z,1.30
2023-03-17T12:23:52.925Z,1.17
2023-03-17T12:26:41.241Z,1.40
2023-03-17T12:29:34.892Z,1.17
2023-03-17T12:32:24.629Z,1.30
2023-03-17T12:34:59.817Z,1.00
2023-03-17T12:37:28.231Z,1.20
2023-03-17T12:40:00.760Z,1.43
2023-03-17T12:42:34.276Z,1.10
2023-03-17T12:45:34.016Z,1.20
2023-03-17T12:48:19.295Z,1.27
2023-03-17T12:51:23.497Z,1.30
2023-03-17T12:53:51.558Z,1.20
2023-03-17T12:56:26.039Z,1.10
2023-03-17T12:58:58.571Z,1.30
2023-03-17T13:01:41.742Z,1.30
2023-03-17T13:04:32.361Z,1.47
2023-03-17T13:07:15.956Z,1.30
2023-03-17T13:09:49.867Z,1.30
2023-03-17T13:12:35.655Z,1.30
2023-03-17T13:15:02.615Z,1.30
2023-03-17T13:17:30.447Z,1.23
2023-03-17T13:20:03.239Z,1.20
2023-03-17T13:23:07.353Z,1.20
2023-03-17T13:25:38.214Z,1.23
2023-03-17T13:28:13.684Z,1.60
2023-03-17T13:30:40.344Z,1.30
2023-03-17T13:33:10.183Z,1.30
2023-03-17T13:35:40.123Z,1.23
2023-03-17T13:38:22.216Z,1.10
2023-03-17T13:41:06.939Z,1.40
2023-03-17T13:44:04.255Z,1.33
2023-03-17T13:46:41.566Z,1.20
2023-03-17T13:49:24.093Z,1.10
2023-03-17T13:52:02.404Z,1.20
2023-03-17T13:54:33.257Z,1.17
2023-03-17T13:57:22.818Z,1.10
2023-03-17T13:59:55.506Z,1.10
2023-03-17T14:02:25.291Z,1.20
2023-03-17T14:04:57.492Z,1.07
2023-03-17T14:07:27.278Z,1.00
2023-03-17T14:09:59.509Z,1.30
2023-03-17T14:12:42.915Z,1.53
2023-03-17T14:15:33.806Z,1.10
2023-03-17T14:18:18.961Z,1.20
2023-03-17T14:20:59.740Z,1.20
2023-03-17T14:23:26.798Z,1.10
2023-03-17T14:25:57.623Z,1.20
2023-03-17T14:28:27.836Z,1.00
2023-03-17T14:30:56.911Z,1.10
2023-03-17T14:33:31.739Z,1.10
2023-03-17T14:36:01.117Z,1.07
2023-03-17T14:38:33.530Z,1.17
2023-03-17T14:41:13.705Z,1.20
2023-03-17T14:43:47.041Z,1.00
2023-03-17T14:46:18.513Z,1.13
2023-03-17T14:48:48.811Z,0.90
2023-03-17T14:51:36.958Z,0.97
2023-03-17T14:54:10.152Z,1.20
2023-03-17T14:56:52.760Z,1.20
2023-03-17T14:59:36.204Z,1.10
2023-03-17T15:02:23.435Z,1.07
2023-03-17T15:04:57.367Z,0.90
2023-03-17T15:07:31.726Z,1.03
2023-03-17T15:10:01.775Z,1.10
2023-03-17T15:12:29.493Z,0.90
2023-03-17T15:15:05.014Z,0.97
2023-03-17T15:17:34.061Z,1.00
2023-03-17T15:20:04.591Z,0.93
2023-03-17T15:22:36.430Z,1.00
2023-03-17T15:25:18.629Z,1.00
2023-03-17T15:39:07.522Z,1.10
2023-03-17T15:41:34.653Z,0.90
2023-03-17T15:44:03.969Z,0.93
2023-03-17T15:46:32.566Z,1.20
2023-03-17T15:49:00.371Z,1.17
2023-03-17T15:51:27.044Z,1.00
2023-03-17T15:53:53.717Z,1.10
2023-03-17T15:56:21.517Z,0.90
2023-03-17T15:58:52.185Z,0.90
2023-03-17T16:01:19.784Z,1.00
2023-03-17T16:03:47.305Z,1.33
2023-03-17T16:06:22.093Z,1.20
2023-03-17T16:08:49.801Z,1.17
2023-03-17T16:11:19.158Z,1.10
2023-03-17T16:13:46.891Z,1.30
2023-03-17T16:16:21.353Z,1.20
2023-03-17T16:18:49.143Z,1.20
2023-03-17T16:21:16.912Z,1.57
2023-03-17T16:23:43.933Z,1.37
2023-03-17T16:26:16.023Z,1.30
2023-03-17T16:28:45.312Z,1.10
2023-03-17T16:31:18.397Z,1.40
2023-03-17T16:33:45.645Z,1.50
2023-03-17T16:36:17.597Z,1.20
2023-03-17T16:38:44.804Z,1.00
2023-03-17T16:41:23.074Z,1.30
2023-03-17T16:43:57.963Z,1.17
2023-03-17T16:46:26.652Z,1.20
2023-03-17T16:48:53.421Z,1.10
2023-03-17T16:51:20.308Z,1.07
2023-03-17T16:53:47.290Z,1.40
2023-03-17T16:56:17.587Z,1.40
2023-03-17T16:58:45.078Z,1.20
2023-03-17T17:01:15.233Z,1.40
2023-03-17T17:03:42.298Z,1.70
2023-03-17T17:06:10.523Z,1.30
2023-03-17T17:08:44.510Z,1.53
2023-03-17T17:11:17.004Z,1.40
2023-03-17T17:13:46.003Z,1.70
2023-03-17T17:16:20.565Z,1.70
2023-03-17T17:18:47.658Z,1.70
2023-03-17T17:21:14.379Z,1.60
2023-03-17T17:23:40.980Z,1.57
2023-03-17T17:26:07.637Z,1.50
2023-03-17T17:28:34.453Z,1.70
2023-03-17T17:31:01.683Z,1.70
2023-03-17T17:33:28.395Z,1.77
2023-03-17T17:35:55.253Z,1.70
2023-03-17T17:38:27.050Z,1.90
2023-03-17T17:40:55.401Z,1.57
2023-03-17T17:43:22.288Z,1.77
2023-03-17T17:45:49.168Z,1.87
2023-03-17T17:48:17.107Z,1.60
2023-03-17T17:50:44.639Z,1.83
2023-03-17T17:53:12.319Z,1.50
2023-03-17T17:55:40.979Z,1.60
2023-03-17T17:58:14.703Z,1.60
2023-03-17T18:00:42.052Z,1.87
2023-03-17T18:03:09.270Z,1.70
2023-03-17T18:05:36.794Z,1.70
2023-03-17T18:08:03.984Z,1.90
2023-03-17T18:10:31.568Z,1.67
2023-03-17T18:12:58.446Z,1.70
2023-03-17T18:15:26.475Z,1.83
2023-03-17T18:17:53.664Z,1.60
2023-03-17T18:20:21.860Z,1.77
2023-03-17T18:22:49.773Z,1.80
2023-03-17T18:25:17.177Z,1.50
2023-03-17T18:27:44.351Z,1.90
2023-03-17T18:30:13.819Z,1.90
2023-03-17T18:32:42.701Z,1.87
2023-03-17T18:35:13.108Z,1.70
2023-03-17T18:37:39.863Z,2.07
2023-03-17T18:40:14.481Z,1.90
2023-03-17T18:42:43.110Z,2.00
2023-03-17T18:45:11.515Z,2.37
2023-03-17T18:47:39.020Z,2.30
2023-03-17T18:50:07.931Z,2.10
2023-03-17T18:52:36.006Z,2.27
2023-03-17T18:55:03.125Z,2.70
2023-03-17T18:57:29.752Z,2.37
2023-03-17T18:59:56.461Z,2.30
2023-03-17T19:02:23.695Z,2.20
2023-03-17T19:04:50.351Z,2.47
2023-03-17T19:07:17.877Z,2.43
2023-03-17T19:09:45.098Z,2.73
2023-03-17T19:12:12.117Z,3.07
2023-03-17T19:14:39.797Z,2.40
2023-03-17T19:17:07.058Z,2.70
2023-03-17T19:19:34.456Z,3.30
2023-03-17T19:22:01.722Z,3.03
2023-03-17T19:24:28.354Z,3.07
2023-03-17T19:26:55.196Z,3.20
2023-03-17T19:29:21.863Z,3.93
2023-03-17T19:31:48.880Z,3.40
2023-03-17T19:34:15.604Z,3.80
2023-03-17T19:36:46.394Z,3.77
2023-03-17T19:39:13.594Z,4.10
2023-03-17T19:41:40.466Z,3.70
2023-03-17T19:44:07.614Z,4.17
2023-03-17T19:46:37.236Z,4.00
2023-03-17T19:49:04.801Z,3.97
2023-03-17T19:51:32.953Z,3.77
2023-03-17T19:53:59.785Z,4.63
2023-03-17T19:56:27.716Z,4.40
2023-03-17T19:58:54.772Z,4.77
2023-03-17T20:01:21.978Z,4.50
2023-03-17T20:03:49.069Z,4.63
2023-03-17T20:06:18.292Z,4.47
2023-03-17T20:08:44.978Z,4.20
2023-03-17T20:11:12.711Z,4.77
2023-03-17T20:13:40.183Z,4.60
2023-03-17T20:16:07.849Z,4.67
2023-03-17T20:18:34.991Z,4.73
2023-03-17T20:21:05.384Z,4.73
2023-03-17T20:23:32.324Z,4.90
2023-03-17T20:25:58.925Z,4.97
2023-03-17T20:28:25.656Z,4.80
2023-03-17T20:30:52.451Z,5.33
2023-03-17T20:33:19.114Z,5.37
2023-03-17T20:35:47.244Z,5.37
2023-03-17T20:38:14.591Z,5.27
2023-03-17T20:40:43.415Z,5.03
2023-03-17T20:43:10.653Z,6.20
2023-03-17T20:45:38.340Z,5.97
2023-03-17T20:48:06.096Z,6.30
2023-03-17T20:50:34.342Z,6.20
2023-03-17T20:53:01.593Z,6.40
2023-03-17T20:55:28.782Z,6.37
2023-03-17T20:57:58.618Z,6.53
2023-03-17T21:00:26.155Z,6.87
2023-03-17T21:02:53.062Z,7.00
2023-03-17T21:05:25.211Z,6.47
2023-03-17T21:07:51.839Z,6.70
2023-03-17T21:10:19.350Z,7.27
2023-03-17T21:12:46.384Z,6.87
2023-03-17T21:15:13.863Z,6.80
2023-03-17T21:17:41.990Z,7.07
2023-03-17T21:20:13.119Z,6.67
2023-03-17T21:22:40.857Z,7.10
2023-03-17T21:25:10.034Z,6.67
2023-03-17T21:27:37.753Z,7.00
2023-03-17T21:30:08.768Z,7.30
2023-03-17T21:32:36.132Z,7.47
2023-03-17T21:35:02.765Z,7.37
2023-03-17T21:37:29.565Z,7.33
2023-03-17T21:39:56.626Z,7.23
2023-03-17T21:42:24.614Z,6.83
2023-03-17T21:44:52.204Z,7.47
2023-03-17T21:47:19.642Z,7.37
2023-03-17T21:49:46.496Z,7.20
2023-03-17T21:52:14.869Z,7.33
2023-03-17T21:54:42.104Z,7.40
2023-03-17T21:57:09.025Z,6.83
2023-03-17T21:59:35.775Z,7.50
2023-03-17T22:02:02.848Z,7.13
2023-03-17T22:04:31.772Z,6.90
2023-03-17T22:06:58.923Z,6.57
2023-03-17T22:09:25.983Z,6.80
2023-03-17T22:11:52.769Z,6.60
2023-03-17T22:14:20.584Z,6.80
2023-03-17T22:16:48.421Z,6.70
2023-03-17T22:19:15.546Z,6.90
2023-03-17T22:21:42.817Z,6.80
2023-03-17T22:24:10.072Z,6.63
2023-03-17T22:26:36.867Z,6.60
2023-03-17T22:29:03.978Z,7.10
2023-03-17T22:31:31.371Z,6.67
2023-03-17T22:33:59.058Z,6.30
2023-03-17T22:36:27.073Z,6.80
2023-03-17T22:38:54.609Z,6.37
2023-03-17T22:41:23.686Z,6.70
2023-03-17T22:43:50.706Z,6.83
2023-03-17T22:46:18.278Z,6.27
2023-03-17T22:48:46.073Z,6.33
2023-03-17T22:51:15.735Z,6.70
2023-03-17T22:53:42.808Z,6.40
2023-03-17T22:56:10.915Z,6.70
2023-03-17T22:58:38.018Z,6.53
2023-03-17T23:01:06.402Z,6.37
2023-03-17T23:03:33.912Z,6.83
2023-03-17T23:06:02.294Z,6.20
2023-03-17T23:08:31.475Z,6.87
2023-03-17T23:11:00.605Z,6.50
2023-03-17T23:13:27.724Z,6.40
2023-03-17T23:15:57.345Z,6.40
2023-03-17T23:18:24.058Z,6.50
2023-03-17T23:20:50.751Z,6.30
2023-03-17T23:23:17.622Z,6.47
2023-03-17T23:25:44.258Z,6.87
2023-03-17T23:28:11.018Z,6.43
2023-03-17T23:30:37.831Z,6.50
2023-03-17T23:33:04.993Z,6.30
2023-03-17T23:35:32.176Z,6.27
2023-03-17T23:37:59.445Z,6.40
2023-03-17T23:40:26.282Z,6.03
2023-03-17T23:42:55.037Z,6.30
2023-03-17T23:45:23.131Z,6.33
2023-03-17T23:47:51.592Z,6.10
2023-03-17T23:50:19.342Z,6.30
2023-03-17T23:52:47.039Z,6.17
2023-03-17T23:55:14.484Z,5.90
2023-03-17T23:57:41.547Z,5.97
